Warren, Rhode Island
Current Conditions -  °F | °C
As of 1:51 AM on Monday 22 Dec 2014 (Local Time) from KPVD Reporting Station
Overcast Overcast  
Wind Chill: 30°   Ceiling: 1900
Heat Index: 34°   Visibility: 10mi
Dew Point: 29°   Wind: 5mph
Humidity: 82%   Direction: 340°NNW
Pressure: 30.35"   Gusts: NA
Location:  41.73°N, 71.28°W
Report Text: KPVD 220651Z AUTO 34004KT 10SM BKN019 OVC049 01/M02 A3035 RMK AO2 SLP278 T00111017
Loading
Personal Weather Stations






























Interactive Weather Map New forecast layout! Learn more

10-Day Weather Forecast

Advertisements
Track Severe Weather on mobile